MDPP/POP METAR and TAF weather

Enter ICAO airport designator
Station Type Date Time Source
MDPP METAR 2019/08/24 17:00 UTC NOAA

MDPP 241700Z 06020KT 9999 FEW022 32/27 Q1016


Station Type Date Time Source
MDPP Decoded METAR 2019/08/24 17:00 UTC NOAA

Station name not available
Aug 24, 2019 - 01:00 PM EDT / 2019.08.24 1700 UTC
Wind: from the ENE (060 degrees) at 23 MPH (20 KT):0
Visibility: greater than 7 mile(s):0
Sky conditions: mostly clear
Temperature: 89 F (32 C)
Heat index: 105.6 F (40.9 C):1
Dew Point: 80 F (27 C)
Relative Humidity: 74%
Pressure (altimeter): 30.00 in. Hg (1016 hPa)
ob: MDPP 241700Z 06020KT 9999 FEW022 32/27 Q1016
cycle: 17

Station Type Date Time Source
MDPP TAF 2019/08/24 18:34 UTC NOAA

TAF MDPP 241600Z 2418/2518 00000KT 9999 FEW018
BECMG 2415/2417 09015KT PROB30 2422/2502 8000-TSRA FEW016CB BKN016

Example: see airport list